Skip Navigation LinksHome page > Weather > Current weather Skip Navigation Links

Current Weather

Ben-Gurion Intl Apt, Tel Aviv, Israel

For information only: do not use for flight planning or navigation.
Latest weather
Observation time Monday, August 29, 2016 4:50 AM IDT
Local time Monday, August 29, 2016 5:03 AM IDT
Flight conditions Visual Meteorological Conditions
Winds
Wind direction East (80°)
Wind speed 5 mph
Visibility 6.2 mi.
Sky condition
Ceiling unlimited
Cloud layer few clouds 3,000 ft.
Temperature 79°F
Dewpoint 70°F
Altimeter 29.85 in.Hg
Derived measurements
Relative humidity 74%
Heat index 79°F
Density altitude 1843 ft.
Remarks
No significant changes expected in the next two hours.
METAR LLBG 290150Z 08004KT 9999 FEW030 26/21 Q1011 NOSIG

Settings

Location code

InnerDrive.Weather 4.0.5722.1 Release CLR 4.0.30319.34209
Copyright ©2015 Inner Drive Technology. All rights reserved. Portions Copyright ©1986-2015 David Braverman.

Find weather

Site navigation


Skip Navigation Links

Place info

Page info

PayPal - The safer, easier way to pay online!

Return home.

Copyright ©2016 Inner Drive Technology. Purveyors of fine, hand-crafted computer software. Page printed 2016-08-29T02:03:26 UTC.